Airport View

Enter AWOS ICAO identifier for current METAR.

ex. KFNL

KDKX 051355Z AUTO VRB04KT 10SM OVC007 23/21 A3006 RMK A01

5 Aug 2020 14:13

Frequency: 125.375

Phone: 865-579-6151

Other Area AWOS: KTYS - KOQT - KGKT - KJAU

TAF AMD KTYS 051400Z 0514/0612 03003KT P6SM SCT080 TEMPO 0514/0515 P6SM BKN006 FM051800 29004KT P6SM VCTS SCT080CB FM060200 03004KT P6SM FEW070 FM061100 00000KT 4SM BR BKN045